Аэропорт: Иркутск. Иркутск

ICAO: UIII

METAR:
2019-09-21 16:00:00
UIII 211600Z 32004G10MPS 290V360 CAVOK 12/09 Q1018 R30/60D NOSIG RMK QFE719/0958
METAR:
2019-09-21 14:00:00
TAF UIII 211400Z 2115/2215 30006MPS 9999 BKN015CB TEMPO 2115/2124 32013MPS